• Join FlightAware (Why Join?)
  • Login
  • US Flag 
07:15AM EDT


 

Airport Tracker/Info


-or-


 

Live Flight TrackerFlight Track Log ✈ N53NW ✈ 11-May-2013 ✈ KAGS - KAPF

Flight Track Log - Related Links

Times and Time Zones

All times are in EDT time to prevent confusion due to time zone crossing. See the N53NW flight status page for this flight to view local times or setup timezone preferences in your user account.

Time Position Orientation Groundspeed Altitude Reporting Facility
EDT Latitude Longitude Course Direction KTS MPH feet Rate Location/Type
09:33AM 33.2817 -82.0758 196° South 245 282 6,800  Level Atlanta Center
09:34AM 33.2111 -82.0897 189° South 245 282 9,800 2,820 Climbing Atlanta Center
09:35AM 33.1383 -82.1089 192° South 257 296 12,500 2,640 Climbing Atlanta Center
09:36AM 33.0592 -82.1303 193° South 276 318 15,100 2,580 Climbing Atlanta Center
09:37AM 32.9844 -82.1494 192° South 282 325 17,700 2,340 Climbing Atlanta Center
09:38AM 32.3805 -82.2454 196° South  Level FlightAware Approximate
09:38AM 32.9075 -82.1683 192° South 282 325 19,800  Level Atlanta Center
09:39AM 32.2913 -82.2751 196° South  Level FlightAware Approximate
09:39AM 32.8286 -82.1872 191° South 282 325 21,900  Level Atlanta Center
09:40AM 32.7411 -82.2089 192° South 303 349 23,600 1,560 Climbing Atlanta Center
09:43AM 32.5011 -82.2694 192° South 348 400 27,500 1,500 Climbing Jacksonville Center
09:44AM 32.4053 -82.2972 194° South 358 412 28,900 1,380 Climbing Jacksonville Center
09:45AM 32.3178 -82.3172 191° South 358 412 30,300 1,440 Climbing Jacksonville Center
09:46AM 32.2092 -82.3425 191° South 358 412 31,800 1,560 Climbing Jacksonville Center
09:47AM 32.1092 -82.3653 191° South 358 412 33,500 1,080 Climbing Jacksonville Center
09:48AM 32.0131 -82.3903 192° South 358 412 34,000 -240 Climbing Jacksonville Center
09:49AM 31.9044 -82.3883 179° South 374 430 33,100 -1,200 Descending Jacksonville Center
09:50AM 31.7875 -82.3744 174° South 403 464 31,600 -1,500 Descending Jacksonville Center
09:51AM 31.6789 -82.3556 172° South 403 464 30,100 -840 Descending Jacksonville Center
09:52AM 31.5639 -82.3392 173° South 408 470 30,000 -120 Descending Jacksonville Center
09:53AM 31.4511 -82.3228 173° South 408 470 29,900  Descending Jacksonville Center
09:54AM 31.3383 -82.3089 174° South 414 476 30,000  Climbing Jacksonville Center
09:55AM 31.2192 -82.2900 172° South 414 476 30,000  Level Jacksonville Center
09:56AM 31.1064 -82.2739 173° South 414 476 30,000 -60 Level Jacksonville Center
09:57AM 30.9917 -82.2553 172° South 414 476 29,900 -600 Descending Jacksonville Center
09:58AM 30.8786 -82.2367 172° South 414 476 28,800 -960 Descending Jacksonville Center
09:59AM 30.7681 -82.2228 174° South 414 476 28,000 -420 Descending Jacksonville Center
10:00AM 30.6614 -82.2067 173° South 402 463 28,000  Level Jacksonville Center
10:01AM 30.5528 -82.1906 173° South 395 455 28,000  Level Jacksonville Center
10:02AM 30.4567 -82.1697 169° South 390 449 28,000  Level Jacksonville Center
10:03AM 30.3544 -82.1825 186° South 385 443 28,000  Level Jacksonville Center
10:04AM 30.2500 -82.1975 187° South 380 437 28,000 -480 Level Jacksonville Center
10:05AM 30.1456 -82.1864 175° South 386 444 27,100 -540 Descending Jacksonville Center
10:06AM 30.0369 -82.1631 169° South 386 444 27,000 -60 Descending Jacksonville Center
10:07AM 29.9281 -82.1400 170° South 391 450 27,000  Level Jacksonville Center
10:08AM 29.8236 -82.1144 168° South 391 450 27,000  Level Jacksonville Center
10:09AM 29.7044 -82.0819 167° South 391 450 27,000  Level Jacksonville Center
10:10AM 29.5978 -82.0567 168° South 391 450 27,000  Level Jacksonville Center
10:11AM 29.4911 -82.0314 168° South 391 450 27,000  Level Jacksonville Center
10:12AM 29.3928 -82.0131 171° South 396 456 27,000  Level Jacksonville Center
10:13AM 29.2864 -81.9878 168° South 396 456 27,000  Level Jacksonville Center
10:14AM 29.1669 -81.9556 167° South 396 456 27,000  Level Jacksonville Center
10:15AM 29.0606 -81.9306 168° South 396 456 27,000  Level Jacksonville Center
10:17AM 28.8222 -81.8739 168° South 399 459 27,000  Level Miami Center
10:18AM 28.7144 -81.8500 169° South 399 459 27,000  Level Miami Center
10:19AM 28.6050 -81.8214 167° South 399 459 27,000  Level Miami Center
10:20AM 28.4953 -81.7953 168° South 399 459 27,000 -540 Level Miami Center
10:21AM 28.3839 -81.7597 164° South 410 472 26,000 -600 Descending Miami Center
10:22AM 28.2703 -81.7289 167° South 415 478 25,900 -540 Descending Miami Center
10:23AM 28.1586 -81.6981 166° South 415 478 25,000 -540 Descending Miami Center
10:24AM 28.0489 -81.6700 167° South 410 472 24,900 -540 Descending Miami Center
10:25AM 27.9436 -81.6958 192° South 388 447 24,000 -480 Descending Miami Center
10:26AM 27.8403 -81.7292 196° South 388 447 24,000  Level Miami Center
10:27AM 27.7244 -81.7617 194° South 394 453 24,000 -720 Level Miami Center
10:28AM 27.6264 -81.7644 181° South 394 453 22,600 -1,620 Descending Miami Center
10:29AM 27.5231 -81.7319 164° South 394 453 20,800 -1,860 Descending Miami Center
10:30AM 27.4183 -81.6783 156° South 382 440 18,900 -1,920 Descending Miami Center
10:31AM 27.3319 -81.6397 158° South 377 434 17,000 -2,100 Descending Miami Center
10:32AM 27.2417 -81.5964 157° South 365 420 14,800 -2,160 Descending Miami Center
10:33AM 27.1511 -81.5531 157° South 360 414 12,700 -2,040 Descending Miami Center
10:34AM 27.0647 -81.5144 158° South 353 406 10,800 -1,380 Descending Miami Center
10:35AM 26.9806 -81.4692 154° Southeast 321 369 10,000 -720 Descending Miami Center
10:36AM 26.8983 -81.4286 156° South 316 364 9,400 -960 Descending Miami Center
10:37AM 26.8347 -81.3983 157° South 294 338 8,100 -720 Descending Miami Center
10:38AM 26.7597 -81.3908 175° South 280 322 8,000 -60 Descending Miami Center
10:39AM 26.6761 -81.3967 184° South 274 315 8,000  Level Miami Center
10:40AM 26.5986 -81.4008 183° South 274 315 8,000  Level Miami Center
10:41AM 26.5233 -81.4047 183° South 274 315 8,000 -480 Level Miami Center
10:42AM 26.4614 -81.4464 211° Southwest 265 305 7,100 -900 Descending Miami Center
10:44AM 26.3218 -81.4646 200° South  Level FlightAware Approximate
10:51AM 26.1500 -81.7667 246° West  Level FlightAware Approximate
10:52AM 26.1524 -81.7756 246° West  Level Estimated
10:53AM 26.1524 -81.7756 246° West  Level Estimated
10:54AM 26.1524 -81.7756 246° West  Level Estimated
10:55AM 26.1524 -81.7756 246° West  Level Estimated
10:56AM 26.1524 -81.7756 246° West  Level Estimated
10:57AM 26.1524 -81.7756 246° West  Level Estimated
10:58AM 26.1524 -81.7756 246° West  Level Estimated
10:59AM 26.1524 -81.7756 246° West  Level Estimated